Time;durP1;ratioP1;P1;durP2;ratioP2;P2;SDS_P1;SDS_P2;PMS_P1;PMS_P2;Temp;Humidity;BMP_temperature;BMP_pressure;BME280_temperature;BME280_humidity;BME280_pressure;Samples;Min_cycle;Max_cycle;Signal;HPM_P1;HPM_P2
2022/07/12 00:01:37;;;;;;;6.62;1.45;;;;;;;13.15;100.00;100385.05;1747326;82;21014;-43
2022/07/12 00:04:04;;;;;;;5.00;1.80;;;;;;;13.14;100.00;100394.22;1749689;82;20936;-44
2022/07/12 00:06:31;;;;;;;4.78;1.77;;;;;;;13.12;100.00;100388.19;1749340;82;20992;-44
2022/07/12 00:08:58;;;;;;;5.42;1.20;;;;;;;13.08;100.00;100392.64;1749546;82;20995;-44
2022/07/12 00:11:25;;;;;;;4.75;1.40;;;;;;;13.07;100.00;100391.78;1749845;81;21973;-44
2022/07/12 00:13:52;;;;;;;9.55;1.45;;;;;;;13.05;100.00;100396.17;1749597;82;20952;-44
2022/07/12 00:16:19;;;;;;;4.60;1.85;;;;;;;13.01;100.00;100397.16;1749463;81;20948;-44
2022/07/12 00:18:45;;;;;;;8.50;1.30;;;;;;;13.01;100.00;100396.30;1749757;81;21015;-44
2022/07/12 00:21:12;;;;;;;4.80;1.30;;;;;;;13.02;100.00;100401.93;1749645;81;20988;-44
2022/07/12 00:23:39;;;;;;;6.97;1.62;;;;;;;13.01;100.00;100403.66;1750006;82;21141;-44
2022/07/12 00:26:06;;;;;;;7.20;1.55;;;;;;;13.00;100.00;100396.77;1749563;82;21493;-44
2022/07/12 00:28:33;;;;;;;2.98;1.70;;;;;;;13.00;100.00;100394.59;1749557;81;20992;-44
2022/07/12 00:31:00;;;;;;;4.55;1.50;;;;;;;12.99;100.00;100395.06;1749763;81;21000;-44
2022/07/12 00:33:27;;;;;;;9.48;1.77;;;;;;;12.97;100.00;100403.78;1749507;82;21043;-44
2022/07/12 00:35:54;;;;;;;4.45;1.47;;;;;;;12.91;100.00;100401.77;1749765;82;21059;-44
2022/07/12 00:38:21;;;;;;;4.53;1.62;;;;;;;12.91;100.00;100408.27;1749681;81;20952;-44
2022/07/12 00:40:49;;;;;;;3.50;1.55;;;;;;;12.93;100.00;100408.23;1749576;82;21537;-44
2022/07/12 00:43:16;;;;;;;4.62;1.32;;;;;;;12.90;100.00;100403.97;1749378;81;21022;-44
2022/07/12 00:45:42;;;;;;;5.65;1.42;;;;;;;12.88;100.00;100412.69;1749624;82;20900;-44
2022/07/12 00:48:09;;;;;;;1.90;1.40;;;;;;;12.88;100.00;100420.05;1740016;81;21154;-44
2022/07/12 00:50:36;;;;;;;6.22;1.57;;;;;;;12.89;100.00;100423.52;1684412;85;20987;-44
2022/07/12 00:53:03;;;;;;;5.50;1.47;;;;;;;12.85;100.00;100429.66;1749960;81;21545;-44
2022/07/12 00:55:31;;;;;;;4.40;1.60;;;;;;;12.79;100.00;100427.66;1749624;81;21540;-44
2022/07/12 00:57:58;;;;;;;3.35;1.30;;;;;;;12.74;100.00;100428.23;1749773;82;21036;-44
2022/07/12 01:00:28;;;;;;;6.72;1.52;;;;;;;12.71;100.00;100426.16;1749604;82;21141;-44
2022/07/12 01:02:56;;;;;;;4.42;1.50;;;;;;;12.67;100.00;100426.71;1749829;81;21042;-44
2022/07/12 01:05:23;;;;;;;5.72;1.87;;;;;;;12.63;100.00;100425.94;1749473;82;21019;-44
2022/07/12 01:07:50;;;;;;;8.25;1.50;;;;;;;12.61;100.00;100427.72;1750051;81;20979;-44
2022/07/12 01:10:17;;;;;;;3.55;1.72;;;;;;;12.60;100.00;100427.75;1749718;81;21012;-44
2022/07/12 01:12:44;;;;;;;6.87;1.77;;;;;;;12.60;100.00;100427.32;1749731;82;21157;-44
2022/07/12 01:15:12;;;;;;;4.58;1.50;;;;;;;12.61;100.00;100442.00;1749770;82;22172;-44
2022/07/12 01:17:38;;;;;;;1.82;1.65;;;;;;;12.62;100.00;100443.70;1720201;82;21117;-44
2022/07/12 01:20:07;;;;;;;5.05;1.47;;;;;;;12.63;100.00;100444.11;1749902;82;20944;-44
2022/07/12 01:22:36;;;;;;;4.53;1.37;;;;;;;12.65;100.00;100447.52;1750056;82;21438;-43
2022/07/12 01:25:04;;;;;;;6.35;1.77;;;;;;;12.65;100.00;100447.52;1749884;82;21087;-43
2022/07/12 01:27:31;;;;;;;3.35;1.47;;;;;;;12.65;100.00;100450.11;1748775;82;20979;-44
2022/07/12 01:29:58;;;;;;;4.83;1.30;;;;;;;12.63;100.00;100448.00;1749938;82;20944;-44
2022/07/12 01:32:25;;;;;;;9.73;1.72;;;;;;;12.64;100.00;100451.00;1749984;82;21007;-44
2022/07/12 01:34:57;;;;;;;7.75;1.60;;;;;;;12.64;100.00;100454.91;1749802;81;20967;-44
2022/07/12 01:37:25;;;;;;;4.17;1.47;;;;;;;12.66;100.00;100452.28;1749982;81;21719;-44
2022/07/12 01:39:54;;;;;;;6.22;1.45;;;;;;;12.66;100.00;100454.88;1749815;82;20972;-44
2022/07/12 01:42:21;;;;;;;4.92;1.62;;;;;;;12.67;100.00;100455.70;1749687;82;21506;-44
2022/07/12 01:44:50;;;;;;;4.78;1.70;;;;;;;12.65;100.00;100461.80;1749901;81;20983;-44
2022/07/12 01:47:21;;;;;;;4.10;1.45;;;;;;;12.61;100.00;100460.18;1750123;81;21027;-44
2022/07/12 01:49:48;;;;;;;4.12;1.77;;;;;;;12.60;100.00;100457.61;1749642;81;21878;-44
2022/07/12 01:52:15;;;;;;;3.70;1.57;;;;;;;12.59;100.00;100465.86;1749759;82;20976;-44
2022/07/12 01:54:42;;;;;;;3.83;1.70;;;;;;;12.59;100.00;100461.97;1749877;81;21013;-44
2022/07/12 01:57:09;;;;;;;11.50;1.85;;;;;;;12.56;100.00;100466.38;1749738;82;21461;-44
2022/07/12 01:59:36;;;;;;;4.65;1.47;;;;;;;12.54;100.00;100471.63;1749942;82;21520;-44
2022/07/12 02:02:04;;;;;;;3.75;1.65;;;;;;;12.54;100.00;100471.63;1744892;82;22457;-44
2022/07/12 02:04:30;;;;;;;2.27;1.55;;;;;;;12.53;100.00;100476.42;1741534;82;21546;-44
2022/07/12 02:06:59;;;;;;;3.60;1.42;;;;;;;12.50;100.00;100475.17;1741735;82;20979;-44
2022/07/12 02:09:25;;;;;;;3.98;1.85;;;;;;;12.45;100.00;100478.34;1741666;82;20975;-44
2022/07/12 02:11:53;;;;;;;7.35;1.60;;;;;;;12.40;100.00;100473.72;1741849;82;21019;-44
2022/07/12 02:14:20;;;;;;;7.67;1.92;;;;;;;12.33;100.00;100482.97;1741387;82;21094;-44
2022/07/12 02:16:48;;;;;;;6.17;1.77;;;;;;;12.27;100.00;100483.13;1742029;82;20929;-44
2022/07/12 02:19:14;;;;;;;4.37;2.10;;;;;;;12.22;100.00;100479.77;1742064;82;21009;-44
2022/07/12 02:21:41;;;;;;;9.78;1.67;;;;;;;12.21;100.00;100480.67;1741967;82;21031;-44
2022/07/12 02:24:08;;;;;;;3.12;1.80;;;;;;;12.20;100.00;100482.86;1734186;82;21504;-44
2022/07/12 02:26:36;;;;;;;11.65;1.80;;;;;;;12.19;100.00;100486.34;1741634;82;21118;-44
2022/07/12 02:29:03;;;;;;;3.30;1.80;;;;;;;12.20;100.00;100482.42;1741861;82;20941;-44
2022/07/12 02:31:30;;;;;;;10.55;2.20;;;;;;;12.21;100.00;100488.45;1741728;82;21056;-44
2022/07/12 02:33:58;;;;;;;7.58;1.60;;;;;;;12.24;100.00;100485.78;1741968;82;20952;-44
2022/07/12 02:36:25;;;;;;;4.95;1.70;;;;;;;12.25;100.00;100492.70;1742227;82;20945;-44
2022/07/12 02:38:52;;;;;;;8.23;1.90;;;;;;;12.26;100.00;100485.75;1741672;82;21575;-44
2022/07/12 02:41:19;;;;;;;4.85;1.72;;;;;;;12.26;100.00;100486.62;1741659;82;21023;-44
2022/07/12 02:43:46;;;;;;;4.22;1.80;;;;;;;12.28;100.00;100487.44;1741865;82;20936;-44
2022/07/12 02:46:13;;;;;;;8.73;2.27;;;;;;;12.32;100.00;100489.48;1741517;82;21008;-44
2022/07/12 02:48:42;;;;;;;3.12;1.82;;;;;;;12.34;100.00;100489.86;1741525;81;20952;-44
2022/07/12 02:51:09;;;;;;;8.50;2.12;;;;;;;12.36;100.00;100491.11;1741726;82;21089;-44
2022/07/12 02:53:37;;;;;;;8.48;2.08;;;;;;;12.39;100.00;100496.25;1741800;82;20952;-44
2022/07/12 02:56:04;;;;;;;5.25;1.67;;;;;;;12.42;100.00;100494.00;1741617;82;20976;-44
2022/07/12 02:58:32;;;;;;;10.08;2.22;;;;;;;12.47;100.00;100497.33;1741493;82;21071;-44
2022/07/12 03:00:59;;;;;;;3.02;1.57;;;;;;;12.50;100.00;100502.44;1696130;82;22104;-44
2022/07/12 03:03:26;;;;;;;4.33;1.95;;;;;;;12.53;100.00;100501.09;1734646;82;21056;-44
2022/07/12 03:05:53;;;;;;;2.80;1.70;;;;;;;12.56;100.00;100504.90;1734655;82;21549;-44
2022/07/12 03:08:19;;;;;;;10.45;1.80;;;;;;;12.59;100.00;100511.30;1735363;82;20933;-44
2022/07/12 03:10:46;;;;;;;8.68;1.87;;;;;;;12.63;100.00;100506.86;1734544;82;21506;-44
2022/07/12 03:13:13;;;;;;;3.12;1.72;;;;;;;12.67;100.00;100507.65;1735283;82;20917;-44
2022/07/12 03:15:41;;;;;;;4.20;2.05;;;;;;;12.71;100.00;100511.44;1735041;82;22876;-45
2022/07/12 03:18:07;;;;;;;9.25;1.80;;;;;;;12.77;100.00;100519.52;1734930;82;21040;-44
2022/07/12 03:20:36;;;;;;;6.08;1.80;;;;;;;12.80;100.00;100512.94;1735153;82;21028;-44
2022/07/12 03:23:02;;;;;;;9.90;1.85;;;;;;;12.86;100.00;100513.20;1734960;82;21086;-44
2022/07/12 03:25:29;;;;;;;4.70;1.57;;;;;;;12.91;100.00;100510.89;1735024;82;21020;-44
2022/07/12 03:27:56;;;;;;;3.80;1.75;;;;;;;12.98;100.00;100513.31;1735035;82;21141;-44
2022/07/12 03:30:22;;;;;;;3.90;1.80;;;;;;;13.05;100.00;100513.56;1708177;82;21494;-44
2022/07/12 03:32:49;;;;;;;3.65;1.60;;;;;;;13.11;100.00;100519.88;1707908;82;20996;-44
2022/07/12 03:35:17;;;;;;;6.47;1.95;;;;;;;13.18;100.00;100520.11;1729676;82;20953;-45
2022/07/12 03:37:47;;;;;;;6.85;1.95;;;;;;;13.25;100.00;100518.63;1734105;82;21043;-44
2022/07/12 03:40:15;;;;;;;2.33;1.40;;;;;;;13.32;100.00;100526.21;1734782;82;21090;-44
2022/07/12 03:42:42;;;;;;;7.22;1.98;;;;;;;13.39;100.00;100528.63;1734864;82;20981;-44
2022/07/12 03:45:11;;;;;;;4.65;1.47;;;;;;;13.47;100.00;100530.14;1735067;82;21447;-44
2022/07/12 03:47:38;;;;;;;6.08;1.40;;;;;;;13.56;100.00;100529.48;1735133;81;21150;-45
2022/07/12 03:50:12;;;;;;;7.03;1.50;;;;;;;13.65;100.00;100529.20;1732437;82;20973;-44
2022/07/12 03:52:41;;;;;;;5.60;1.47;;;;;;;13.83;100.00;100530.85;1734989;82;21126;-45
2022/07/12 03:55:11;;;;;;;3.87;1.40;;;;;;;14.07;100.00;100527.91;1734464;82;21016;-45
2022/07/12 03:57:38;;;;;;;4.28;1.55;;;;;;;14.34;100.00;100525.31;1715758;82;20989;-45
2022/07/12 04:00:09;;;;;;;3.35;1.20;;;;;;;14.60;100.00;100527.06;1734960;82;20989;-45
2022/07/12 04:02:37;;;;;;;8.53;1.45;;;;;;;14.87;100.00;100530.08;1716200;82;21048;-45
2022/07/12 04:05:05;;;;;;;4.33;1.17;;;;;;;15.13;100.00;100529.16;1749747;81;21121;-45
2022/07/12 04:07:33;;;;;;;2.90;1.05;;;;;;;15.35;100.00;100529.68;1751663;81;20983;-44
2022/07/12 04:09:59;;;;;;;1.72;1.20;;;;;;;15.61;100.00;100531.76;1751655;81;21075;-45
2022/07/12 04:12:26;;;;;;;4.47;1.40;;;;;;;15.84;100.00;100537.38;1751637;81;20940;-45
2022/07/12 04:14:53;;;;;;;1.10;0.68;;;;;;;16.03;100.00;100540.13;1751625;82;20975;-45
2022/07/12 04:17:20;;;;;;;3.08;1.10;;;;;;;16.24;100.00;100538.87;1751867;82;21028;-45
2022/07/12 04:19:47;;;;;;;6.35;1.10;;;;;;;16.43;100.00;100543.35;1751493;81;20984;-45
2022/07/12 04:22:13;;;;;;;11.90;1.55;;;;;;;16.58;99.29;100545.34;1743451;81;21032;-45
2022/07/12 04:24:41;;;;;;;4.00;1.10;;;;;;;16.73;98.90;100546.44;1752162;81;20984;-45
2022/07/12 04:27:07;;;;;;;3.20;1.60;;;;;;;16.87;96.84;100543.23;1752056;81;20908;-45
2022/07/12 04:29:34;;;;;;;3.12;1.00;;;;;;;17.00;96.49;100548.80;1751702;81;21165;-45
2022/07/12 04:32:01;;;;;;;3.62;1.30;;;;;;;17.19;95.38;100546.69;1751621;81;20980;-45
2022/07/12 04:34:27;;;;;;;1.40;0.90;;;;;;;17.34;94.83;100551.69;1752028;81;21003;-45
2022/07/12 04:36:54;;;;;;;1.67;1.10;;;;;;;17.50;93.63;100553.97;1752235;81;21035;-45
2022/07/12 04:39:21;;;;;;;1.77;0.75;;;;;;;17.71;93.07;100548.67;1752198;81;21233;-45
2022/07/12 04:41:47;;;;;;;7.92;1.20;;;;;;;17.92;92.95;100549.89;1742803;81;21091;-45
2022/07/12 04:44:14;;;;;;;5.50;1.20;;;;;;;18.08;89.69;100546.95;1751686;81;20994;-45
2022/07/12 04:46:40;;;;;;;7.00;1.30;;;;;;;18.14;88.87;100552.81;1751707;81;20999;-45
2022/07/12 04:49:07;;;;;;;3.47;1.20;;;;;;;18.22;87.86;100552.83;1751776;81;21007;-45
2022/07/12 04:51:34;;;;;;;3.17;1.25;;;;;;;18.33;87.37;100557.99;1731894;81;20963;-45
2022/07/12 04:54:01;;;;;;;1.87;1.12;;;;;;;18.44;87.65;100554.40;1752032;81;21145;-45
2022/07/12 04:56:28;;;;;;;5.47;1.30;;;;;;;18.53;85.10;100559.16;1751889;81;20959;-45
2022/07/12 04:58:55;;;;;;;3.52;1.15;;;;;;;18.47;84.89;100562.10;1751886;81;20960;-45
2022/07/12 05:01:21;;;;;;;2.47;1.20;;;;;;;18.51;86.06;100561.47;1752038;81;21572;-45
2022/07/12 05:03:48;;;;;;;1.30;1.20;;;;;;;18.65;85.68;100568.19;1749756;81;21079;-45
2022/07/12 05:06:15;;;;;;;3.80;1.12;;;;;;;18.74;85.56;100558.14;1750106;82;21228;-45
2022/07/12 05:08:42;;;;;;;2.90;1.30;;;;;;;18.95;86.69;100558.83;1745576;81;21031;-45
2022/07/12 05:11:09;;;;;;;6.08;1.10;;;;;;;19.14;83.76;100563.13;1749782;81;21027;-45
2022/07/12 05:13:35;;;;;;;1.87;1.40;;;;;;;19.19;82.80;100566.34;1725953;82;22367;-45
2022/07/12 05:16:02;;;;;;;2.30;1.17;;;;;;;19.23;82.97;100569.21;1749970;81;20995;-45
2022/07/12 05:18:30;;;;;;;2.95;1.30;;;;;;;19.38;83.26;100566.23;1749774;81;21198;-45
2022/07/12 05:20:57;;;;;;;3.27;1.10;;;;;;;19.53;83.03;100569.32;1749648;81;21018;-45
2022/07/12 05:23:24;;;;;;;3.33;1.20;;;;;;;19.67;82.24;100568.56;1749964;82;21517;-45
2022/07/12 05:25:50;;;;;;;3.45;1.30;;;;;;;19.84;81.10;100576.47;1749890;81;21054;-45
2022/07/12 05:28:17;;;;;;;5.28;1.45;;;;;;;19.81;78.56;100573.53;1749441;81;20975;-45
2022/07/12 05:30:44;;;;;;;6.05;1.40;;;;;;;19.85;79.55;100574.22;1749773;82;21160;-45
2022/07/12 05:33:14;;;;;;;4.87;1.07;;;;;;;19.94;78.97;100573.25;1749591;82;20984;-45
2022/07/12 05:35:41;;;;;;;2.95;1.20;;;;;;;19.99;78.84;100570.86;1749790;81;20983;-45
2022/07/12 05:38:08;;;;;;;4.25;1.47;;;;;;;20.01;79.10;100573.76;1749526;82;20975;-46
2022/07/12 05:40:35;;;;;;;6.12;1.45;;;;;;;20.09;79.10;100578.12;1740023;82;20983;-46
2022/07/12 05:43:02;;;;;;;3.95;1.35;;;;;;;20.15;78.53;100577.40;1749820;82;21169;-45
2022/07/12 05:45:29;;;;;;;7.10;1.60;;;;;;;20.22;79.89;100586.61;1749701;82;21514;-45
2022/07/12 05:47:55;;;;;;;10.50;1.60;;;;;;;20.28;77.62;100588.88;1719900;82;20995;-45
2022/07/12 05:50:24;;;;;;;3.85;1.32;;;;;;;20.32;78.12;100585.63;1749815;82;20897;-45
2022/07/12 05:55:36;;;;;;;8.40;1.77;;;;;;;20.38;77.59;100587.89;1746634;82;21591;-45
2022/07/12 05:58:03;;;;;;;4.22;1.52;;;;;;;20.42;78.29;100591.20;1749782;81;21007;-45
2022/07/12 06:00:32;;;;;;;2.92;1.50;;;;;;;20.56;78.49;100590.40;1749636;81;20901;-45
2022/07/12 06:02:59;;;;;;;6.92;1.67;;;;;;;20.70;78.01;100594.84;1749824;82;21047;-45
2022/07/12 06:05:27;;;;;;;3.33;1.87;;;;;;;20.77;76.71;100597.48;1749761;82;20952;-45
2022/07/12 06:07:56;;;;;;;2.35;1.70;;;;;;;20.73;76.88;100593.34;1749832;82;21830;-45
2022/07/12 06:10:23;;;;;;;6.58;1.60;;;;;;;20.78;76.89;100600.03;1749782;81;20976;-45
2022/07/12 06:12:50;;;;;;;1.52;1.35;;;;;;;20.91;77.85;100600.19;1749758;82;21023;-45
2022/07/12 06:15:17;;;;;;;3.62;1.42;;;;;;;21.02;74.63;100593.42;1743073;82;20936;-45
2022/07/12 06:17:45;;;;;;;3.58;1.60;;;;;;;21.02;74.67;100602.17;1749764;81;21015;-45
2022/07/12 06:20:12;;;;;;;2.92;1.45;;;;;;;21.04;75.09;100599.43;1749923;82;21162;-45
2022/07/12 06:22:38;;;;;;;4.95;1.40;;;;;;;21.06;74.78;100601.50;1749437;81;20913;-45
2022/07/12 06:25:07;;;;;;;7.75;2.00;;;;;;;21.17;75.42;100599.08;1749548;81;20991;-45
2022/07/12 06:27:34;;;;;;;3.35;1.70;;;;;;;21.30;74.15;100604.89;1720232;82;21497;-45
2022/07/12 06:30:01;;;;;;;1.75;1.40;;;;;;;21.35;73.14;100610.75;1736669;82;20940;-45
2022/07/12 06:32:27;;;;;;;5.58;1.22;;;;;;;21.28;72.92;100604.14;1749959;82;21143;-45
2022/07/12 06:34:55;;;;;;;4.12;1.40;;;;;;;21.22;72.87;100611.48;1749572;81;20963;-45
2022/07/12 06:37:22;;;;;;;1.57;1.47;;;;;;;21.12;70.39;100611.67;1748462;81;21470;-45
2022/07/12 06:39:49;;;;;;;2.30;1.40;;;;;;;20.94;70.92;100612.28;1749895;81;21008;-45
2022/07/12 06:42:16;;;;;;;1.47;1.30;;;;;;;20.93;72.40;100615.86;1749696;81;20948;-45
2022/07/12 06:44:43;;;;;;;4.28;1.32;;;;;;;20.96;71.17;100609.95;1719670;82;21957;-45
2022/07/12 06:47:10;;;;;;;4.62;1.35;;;;;;;20.99;71.39;100608.08;1720023;83;21027;-45
2022/07/12 06:49:37;;;;;;;1.62;1.15;;;;;;;21.04;71.71;100608.19;1745250;81;21545;-45
2022/07/12 06:52:06;;;;;;;1.67;1.47;;;;;;;21.01;68.91;100606.20;1749520;81;21537;-45
2022/07/12 06:54:32;;;;;;;1.40;1.27;;;;;;;20.95;70.27;100608.27;1749657;81;21565;-45
2022/07/12 06:56:59;;;;;;;3.92;1.40;;;;;;;21.00;70.63;100609.77;1749612;81;21086;-45
2022/07/12 06:59:26;;;;;;;1.92;1.50;;;;;;;21.05;70.76;100605.06;1749705;81;20901;-45
2022/07/12 07:01:55;;;;;;;4.42;1.37;;;;;;;21.11;71.00;100609.98;1749935;82;21081;-44
2022/07/12 07:04:22;;;;;;;9.05;1.50;;;;;;;21.21;70.90;100613.73;1749843;81;21486;-45
2022/07/12 07:06:49;;;;;;;6.90;2.25;;;;;;;21.25;70.69;100618.36;1749365;82;21568;-44
2022/07/12 07:09:16;;;;;;;1.42;1.32;;;;;;;21.37;68.83;100614.13;1749968;82;21143;-44
2022/07/12 07:11:43;;;;;;;1.90;1.42;;;;;;;21.51;70.73;100618.05;1749663;82;21470;-45
2022/07/12 07:14:12;;;;;;;2.25;1.42;;;;;;;21.59;68.66;100613.63;1749847;81;21805;-44
2022/07/12 07:16:38;;;;;;;6.03;1.67;;;;;;;21.68;68.28;100610.44;1749915;82;21514;-44
2022/07/12 07:19:08;;;;;;;2.58;1.60;;;;;;;21.81;69.13;100619.73;1749569;81;20972;-44
2022/07/12 07:21:34;;;;;;;6.40;1.47;;;;;;;21.94;67.69;100626.87;1749674;82;21059;-44
2022/07/12 07:24:02;;;;;;;1.77;1.30;;;;;;;22.00;66.37;100622.52;1749498;82;21000;-45
2022/07/12 07:26:30;;;;;;;4.87;1.30;;;;;;;22.00;63.64;100623.83;1749612;82;21031;-44
2022/07/12 07:31:41;;;;;;;1.70;1.05;;;;;;;22.02;63.16;100628.53;1750147;82;21474;-45
2022/07/12 07:34:08;;;;;;;5.67;1.20;;;;;;;22.07;62.77;100629.08;1749610;82;21134;-45
2022/07/12 07:36:36;;;;;;;5.17;1.25;;;;;;;22.18;63.31;100625.75;1741255;82;21498;-45
2022/07/12 07:39:03;;;;;;;5.65;1.10;;;;;;;22.29;62.38;100634.28;1749321;82;20967;-45
2022/07/12 07:41:30;;;;;;;15.63;1.47;;;;;;;22.34;58.50;100623.44;1749682;81;20905;-45
2022/07/12 07:43:56;;;;;;;5.50;1.25;;;;;;;22.35;58.47;100626.45;1749046;82;20979;-45
2022/07/12 07:46:23;;;;;;;8.33;0.82;;;;;;;22.25;58.92;100624.88;1749915;82;21101;-45
2022/07/12 07:48:50;;;;;;;4.65;0.90;;;;;;;22.23;59.06;100634.69;1749409;81;20940;-45
2022/07/12 07:51:17;;;;;;;0.93;0.93;;;;;;;22.32;58.71;100630.61;1749695;81;20936;-45
2022/07/12 07:53:43;;;;;;;1.95;0.98;;;;;;;22.45;57.15;100635.43;1730031;81;21533;-45
2022/07/12 07:56:10;;;;;;;1.62;1.20;;;;;;;22.56;57.11;100634.76;1749631;82;20952;-45
2022/07/12 07:58:38;;;;;;;5.75;1.12;;;;;;;22.68;57.93;100635.27;1749566;82;21213;-45
2022/07/12 08:01:05;;;;;;;6.22;1.00;;;;;;;22.80;54.29;100640.20;1749716;82;21525;-45
2022/07/12 08:03:32;;;;;;;1.55;0.90;;;;;;;22.82;53.99;100645.36;1746388;82;21019;-43
2022/07/12 08:06:00;;;;;;;2.67;0.80;;;;;;;22.72;55.57;100646.45;1741883;82;21027;-43
2022/07/12 08:08:28;;;;;;;3.95;1.07;;;;;;;22.88;56.03;100645.43;1741784;82;21003;-44
2022/07/12 08:10:55;;;;;;;3.92;1.02;;;;;;;23.03;54.20;100644.86;1741711;82;21086;-44
2022/07/12 08:13:23;;;;;;;2.67;1.20;;;;;;;23.07;51.62;100643.23;1741849;82;20981;-43
2022/07/12 08:15:50;;;;;;;4.20;0.95;;;;;;;23.04;54.27;100649.19;1741553;82;20988;-43
2022/07/12 08:19:11;;;;;;;3.22;0.70;;;;;;;23.44;52.54;100645.16;1788537;78;22586;-44
2022/07/12 08:21:38;;;;;;;0.98;0.70;;;;;;;23.58;52.24;100643.33;1743939;80;20956;-44
2022/07/12 08:24:05;;;;;;;1.50;0.80;;;;;;;23.56;51.38;100649.20;1708781;83;22040;-44
2022/07/12 08:26:31;;;;;;;1.05;0.80;;;;;;;23.56;51.68;100647.41;1711899;83;20978;-44
2022/07/12 08:28:59;;;;;;;2.20;0.68;;;;;;;23.62;50.41;100654.90;1712059;83;21022;-44
2022/07/12 08:31:26;;;;;;;3.58;0.82;;;;;;;23.59;51.38;100655.58;1699124;82;21440;-44
2022/07/12 08:33:53;;;;;;;4.05;0.90;;;;;;;23.53;52.26;100657.70;1711933;83;20981;-44
2022/07/12 08:36:20;;;;;;;2.35;0.98;;;;;;;23.58;51.02;100651.25;1707776;83;21067;-44
2022/07/12 08:38:46;;;;;;;1.65;0.80;;;;;;;23.66;50.33;100653.72;1704177;83;21010;-44
2022/07/12 08:41:14;;;;;;;1.90;0.80;;;;;;;23.74;50.72;100660.25;1702039;82;21026;-44
2022/07/12 08:43:41;;;;;;;3.70;0.90;;;;;;;23.83;49.32;100663.09;1711316;83;20947;-44
2022/07/12 08:46:11;;;;;;;0.95;0.78;;;;;;;24.07;47.89;100659.66;1715129;83;20963;-45
2022/07/12 08:48:38;;;;;;;1.87;0.80;;;;;;;24.25;44.78;100661.47;1699194;83;21142;-44
2022/07/12 08:51:14;;;;;;;2.65;0.60;;;;;;;24.42;47.17;100664.66;1684359;84;20968;-44
2022/07/12 08:53:41;;;;;;;0.60;0.60;;;;;;;24.64;46.45;100665.70;1683758;84;21007;-44
2022/07/12 08:56:08;;;;;;;1.27;0.60;;;;;;;24.80;43.95;100660.13;1685282;84;20980;-45
2022/07/12 08:58:35;;;;;;;1.52;0.78;;;;;;;24.94;46.68;100672.32;1681702;84;20991;-44
2022/07/12 09:01:02;;;;;;;3.50;0.72;;;;;;;25.13;44.88;100675.72;1686407;84;21047;-44
2022/07/12 09:03:28;;;;;;;2.55;0.70;;;;;;;24.81;43.48;100673.27;1673716;84;21604;-44
2022/07/12 09:05:56;;;;;;;1.52;0.60;;;;;;;24.19;43.73;100667.68;1659230;84;20956;-44
2022/07/12 09:08:33;;;;;;;3.00;0.65;;;;;;;23.80;45.74;100675.20;1686186;84;21043;-44
2022/07/12 09:11:02;;;;;;;1.62;0.90;;;;;;;23.81;45.49;100678.70;1685644;84;20976;-44
2022/07/12 09:13:53;;;;;;;1.22;0.70;;;;;;;24.06;45.92;100666.41;1682175;84;21593;-44
2022/07/12 09:16:25;;;;;;;5.58;0.93;;;;;;;24.43;44.80;100669.48;1687390;84;20976;-43
2022/07/12 09:18:55;;;;;;;0.70;0.70;;;;;;;24.42;45.97;100679.20;1665665;85;21038;-43
2022/07/12 09:21:29;;;;;;;4.20;0.70;;;;;;;24.26;44.09;100687.42;1642335;85;21017;-44
2022/07/12 09:23:57;;;;;;;4.55;0.80;;;;;;;24.29;45.35;100677.94;1665687;85;21000;-43
2022/07/12 09:26:32;;;;;;;3.15;0.72;;;;;;;24.55;44.24;100672.52;1667229;85;21815;-43
2022/07/12 09:29:11;;;;;;;3.60;0.98;;;;;;;24.77;45.74;100677.11;1666837;85;26189;-44
2022/07/12 09:37:20;;;;;;;6.15;0.90;;;;;;;25.14;45.76;100671.28;1663235;85;20941;-43
2022/07/12 09:39:50;;;;;;;6.22;0.70;;;;;;;25.57;46.38;100674.60;1669452;85;21223;-43
2022/07/12 09:42:18;;;;;;;2.80;1.07;;;;;;;25.88;43.95;100668.18;1668263;85;20961;-43
2022/07/12 09:44:45;;;;;;;2.77;0.90;;;;;;;25.75;41.28;100665.67;1668608;85;21510;-43
2022/07/12 09:47:18;;;;;;;1.70;0.80;;;;;;;25.15;42.39;100671.17;1662317;85;21030;-43
2022/07/12 09:49:45;;;;;;;3.08;0.70;;;;;;;24.87;44.00;100667.13;1671659;85;21016;-43
2022/07/12 09:52:20;;;;;;;0.93;0.70;;;;;;;24.98;44.77;100665.00;1670028;85;21139;-44
2022/07/12 09:54:53;;;;;;;4.17;1.02;;;;;;;25.11;42.85;100672.34;1663061;85;21490;-43
2022/07/12 09:57:32;;;;;;;3.40;0.90;;;;;;;24.98;42.96;100671.12;1682235;85;21081;-43
2022/07/12 10:00:01;;;;;;;1.12;0.85;;;;;;;24.64;43.53;100671.86;1669508;85;21055;-43
2022/07/12 10:02:31;;;;;;;4.42;0.80;;;;;;;24.53;44.49;100678.41;1697732;83;21019;-43
2022/07/12 10:04:58;;;;;;;2.00;0.90;;;;;;;24.74;44.68;100676.45;1688924;84;21140;-43
2022/07/12 10:07:27;;;;;;;6.47;1.12;;;;;;;24.67;44.14;100674.27;1682467;83;21039;-43
2022/07/12 10:09:54;;;;;;;2.10;1.25;;;;;;;24.31;43.50;100680.48;1687887;84;21022;-42
2022/07/12 10:12:23;;;;;;;2.25;0.70;;;;;;;23.84;43.25;100674.52;1698388;83;20952;-42
2022/07/12 10:15:02;;;;;;;3.77;1.12;;;;;;;23.74;44.68;100667.72;1688100;84;21561;-42
2022/07/12 10:17:29;;;;;;;4.25;0.82;;;;;;;24.06;45.60;100672.52;1657048;85;21066;-43
2022/07/12 10:20:17;;;;;;;4.40;1.00;;;;;;;24.47;45.40;100669.61;1667896;85;21036;-43
2022/07/12 10:22:43;;;;;;;1.42;0.80;;;;;;;24.89;43.95;100664.75;1650924;85;21534;-43
2022/07/12 10:25:32;;;;;;;9.20;1.10;;;;;;;25.25;43.91;100670.81;1636980;85;21553;-43
2022/07/12 10:28:01;;;;;;;5.25;1.07;;;;;;;25.53;43.16;100660.74;1660196;85;20945;-44
2022/07/12 10:30:29;;;;;;;1.87;0.80;;;;;;;25.83;42.63;100659.77;1650308;85;22081;-44
2022/07/12 10:32:59;;;;;;;13.78;1.42;;;;;;;26.16;42.94;100662.00;1665197;85;21000;-43
2022/07/12 10:35:28;;;;;;;5.30;0.90;;;;;;;26.66;42.96;100662.78;1666548;85;20993;-44
2022/07/12 10:38:18;;;;;;;0.70;0.70;;;;;;;27.05;40.98;100658.24;1664199;85;21013;-44
2022/07/12 10:40:46;;;;;;;6.83;1.27;;;;;;;27.30;40.44;100659.26;1671818;85;21024;-44
2022/07/12 10:43:17;;;;;;;3.08;1.17;;;;;;;27.00;39.50;100666.23;1668115;85;21253;-44
2022/07/12 10:45:44;;;;;;;1.62;0.80;;;;;;;26.74;40.90;100663.44;1669290;85;21510;-43
2022/07/12 10:48:19;;;;;;;7.87;0.90;;;;;;;26.68;40.06;100664.81;1656493;85;21012;-43
2022/07/12 10:50:57;;;;;;;5.28;0.90;;;;;;;26.39;38.66;100661.42;1668736;85;20970;-44
2022/07/12 10:53:38;;;;;;;4.05;1.05;;;;;;;25.75;39.25;100663.02;1668272;85;21024;-43
2022/07/12 10:56:15;;;;;;;2.58;1.00;;;;;;;25.49;40.47;100663.73;1671893;85;21167;-43
2022/07/12 10:58:58;;;;;;;1.57;0.60;;;;;;;25.51;39.20;100669.76;1668044;85;21542;-44
2022/07/12 11:01:31;;;;;;;2.42;0.70;;;;;;;25.42;39.25;100667.34;1695850;83;21565;-42
2022/07/12 11:04:09;;;;;;;4.50;0.60;;;;;;;25.67;39.89;100653.52;1660155;85;21059;-43
2022/07/12 11:06:40;;;;;;;1.77;0.68;;;;;;;25.96;38.68;100664.42;1658828;85;21063;-43
2022/07/12 11:09:13;;;;;;;6.33;0.80;;;;;;;26.20;39.20;100659.95;1668158;85;21060;-43
2022/07/12 11:11:51;;;;;;;12.85;1.10;;;;;;;26.53;40.39;100663.44;1661646;85;21100;-43
2022/07/12 11:14:30;;;;;;;11.38;0.70;;;;;;;26.87;38.16;100661.95;1659642;85;21000;-43
2022/07/12 11:16:57;;;;;;;4.75;0.70;;;;;;;26.98;36.46;100661.04;1668190;85;20925;-43
2022/07/12 11:19:27;;;;;;;3.20;0.72;;;;;;;26.95;36.04;100669.27;1674382;84;21016;-43
2022/07/12 11:21:57;;;;;;;0.53;0.53;;;;;;;27.16;35.36;100661.78;1686822;83;21223;-42
2022/07/12 11:24:31;;;;;;;8.98;0.88;;;;;;;27.43;36.30;100655.91;1695397;83;20983;-43
2022/07/12 11:26:59;;;;;;;7.12;0.70;;;;;;;27.77;36.39;100657.42;1692745;84;21042;-42
2022/07/12 11:29:26;;;;;;;6.17;0.55;;;;;;;27.66;34.83;100656.56;1664131;83;21003;-42
2022/07/12 11:32:06;;;;;;;4.00;0.62;;;;;;;27.20;33.88;100663.19;1698384;83;21441;-42
2022/07/12 11:34:34;;;;;;;2.77;0.68;;;;;;;26.42;36.67;100655.53;1696042;84;21273;-43
2022/07/12 11:37:01;;;;;;;0.55;0.55;;;;;;;25.69;37.86;100659.54;1689401;83;21537;-43
2022/07/12 11:39:40;;;;;;;12.45;0.62;;;;;;;25.34;39.02;100656.02;1692925;82;20937;-43